createdAt,value
2023-01-29T00:00:36.465Z,12.38
2023-01-29T00:03:23.300Z,12.65
2023-01-29T00:06:10.385Z,11.85
2023-01-29T00:08:57.383Z,12.20
2023-01-29T00:11:44.212Z,11.77
2023-01-29T00:14:31.003Z,12.98
2023-01-29T00:17:17.840Z,12.35
2023-01-29T00:20:05.041Z,11.93
2023-01-29T00:22:51.895Z,12.00
2023-01-29T00:25:39.533Z,11.75
2023-01-29T00:28:26.371Z,11.40
2023-01-29T00:31:22.166Z,12.00
2023-01-29T00:34:09.023Z,13.23
2023-01-29T00:37:04.791Z,11.68
2023-01-29T00:39:51.607Z,11.70
2023-01-29T00:42:57.053Z,10.20
2023-01-29T00:45:43.822Z,11.38
2023-01-29T00:48:30.783Z,11.07
2023-01-29T00:51:17.547Z,11.60
2023-01-29T00:54:06.914Z,12.40
2023-01-29T00:59:40.303Z,11.20
2023-01-29T01:02:46.440Z,11.05
2023-01-29T01:05:33.587Z,11.10
2023-01-29T01:08:38.977Z,10.57
2023-01-29T01:11:25.793Z,9.95
2023-01-29T01:14:12.583Z,10.60
2023-01-29T01:16:59.599Z,11.25
2023-01-29T01:19:46.483Z,12.02
2023-01-29T01:22:33.241Z,11.20
2023-01-29T01:25:21.335Z,11.13
2023-01-29T01:28:09.478Z,10.88
2023-01-29T01:30:56.431Z,11.25
2023-01-29T01:33:43.354Z,10.25
2023-01-29T01:36:32.295Z,12.02
2023-01-29T01:39:19.195Z,10.57
2023-01-29T01:42:10.174Z,11.00
2023-01-29T01:45:04.514Z,10.02
2023-01-29T01:48:00.223Z,10.32
2023-01-29T01:50:50.564Z,11.43
2023-01-29T01:53:41.194Z,11.68
2023-01-29T01:56:38.303Z,9.32
2023-01-29T01:59:25.172Z,10.93
2023-01-29T02:02:30.707Z,9.40
2023-01-29T02:05:36.186Z,9.60
2023-01-29T02:09:17.994Z,10.15
2023-01-29T02:12:07.902Z,10.02
2023-01-29T02:14:54.784Z,10.75
2023-01-29T02:17:41.669Z,9.70
2023-01-29T02:20:31.888Z,9.90
2023-01-29T02:23:39.884Z,9.95
2023-01-29T02:26:51.485Z,10.25
2023-01-29T02:30:03.776Z,9.48
2023-01-29T02:33:01.002Z,10.35
2023-01-29T02:35:54.915Z,9.65
2023-01-29T02:38:49.329Z,10.52
2023-01-29T02:41:49.345Z,9.27
2023-01-29T02:44:48.854Z,9.55
2023-01-29T02:47:47.600Z,10.13
2023-01-29T02:50:50.851Z,9.40
2023-01-29T02:54:23.144Z,9.07
2023-01-29T02:57:24.249Z,10.32
2023-01-29T03:00:15.046Z,9.23
2023-01-29T03:03:16.521Z,9.32
2023-01-29T03:06:20.278Z,10.82
2023-01-29T03:09:20.794Z,8.95
2023-01-29T03:12:33.591Z,10.32
2023-01-29T03:15:26.560Z,9.65
2023-01-29T03:18:18.635Z,10.45
2023-01-29T03:21:30.110Z,9.68
2023-01-29T03:25:14.841Z,8.82
2023-01-29T03:28:21.442Z,10.95
2023-01-29T03:31:29.176Z,10.38
2023-01-29T03:34:35.223Z,8.88
2023-01-29T03:37:35.220Z,8.98
2023-01-29T03:40:22.159Z,8.52
2023-01-29T03:43:25.715Z,9.95
2023-01-29T03:46:29.137Z,8.73
2023-01-29T03:49:26.523Z,9.48
2023-01-29T03:52:21.891Z,9.73
2023-01-29T03:55:17.100Z,8.85
2023-01-29T03:58:20.228Z,8.60
2023-01-29T04:01:12.111Z,9.13
2023-01-29T04:04:01.984Z,8.35
2023-01-29T04:06:50.452Z,9.00
2023-01-29T04:10:11.120Z,8.27
2023-01-29T04:13:04.472Z,9.13
2023-01-29T04:15:55.870Z,8.05
2023-01-29T04:18:45.499Z,9.15
2023-01-29T04:21:32.930Z,8.43
2023-01-29T04:24:19.750Z,8.35
2023-01-29T04:27:37.262Z,7.97
2023-01-29T04:30:39.428Z,8.48
2023-01-29T04:33:34.215Z,9.30
2023-01-29T04:36:36.572Z,9.73
2023-01-29T04:39:45.103Z,8.45
2023-01-29T04:43:01.120Z,8.13
2023-01-29T04:46:21.363Z,8.68
2023-01-29T04:49:19.009Z,8.55
2023-01-29T04:52:14.380Z,8.60
2023-01-29T04:55:19.465Z,8.60
2023-01-29T04:58:13.520Z,9.00
2023-01-29T05:01:02.363Z,8.38
2023-01-29T05:03:51.231Z,9.20
2023-01-29T05:06:38.454Z,9.65
2023-01-29T05:09:25.587Z,10.02
2023-01-29T05:12:14.605Z,9.52
2023-01-29T05:15:03.652Z,11.30
2023-01-29T05:17:50.568Z,10.07
2023-01-29T05:20:39.784Z,8.85
2023-01-29T05:23:26.600Z,9.10
2023-01-29T05:26:32.203Z,8.48
2023-01-29T05:29:20.443Z,9.20
2023-01-29T05:32:07.235Z,9.70
2023-01-29T05:34:53.996Z,9.38
2023-01-29T05:37:41.058Z,8.85
2023-01-29T05:40:27.896Z,8.15
2023-01-29T05:43:21.749Z,8.77
2023-01-29T05:46:09.174Z,8.20
2023-01-29T05:48:55.974Z,8.88
2023-01-29T05:51:42.736Z,9.55
2023-01-29T05:54:29.596Z,8.98
2023-01-29T05:57:16.352Z,8.55
2023-01-29T06:00:04.447Z,9.75
2023-01-29T06:02:51.359Z,9.27
2023-01-29T06:05:38.741Z,9.18
2023-01-29T06:08:25.541Z,8.82
2023-01-29T06:11:13.438Z,8.85
2023-01-29T06:14:00.416Z,9.02
2023-01-29T06:16:47.216Z,9.05
2023-01-29T06:19:34.010Z,8.95
2023-01-29T06:22:20.797Z,9.00
2023-01-29T06:25:08.117Z,9.63
2023-01-29T06:27:56.203Z,9.10
2023-01-29T06:30:43.947Z,8.77
2023-01-29T06:33:31.184Z,8.65
2023-01-29T06:36:18.069Z,9.80
2023-01-29T06:39:04.878Z,9.35
2023-01-29T06:41:51.703Z,7.95
2023-01-29T06:44:38.484Z,8.50
2023-01-29T06:47:25.309Z,8.40
2023-01-29T06:50:12.194Z,8.82
2023-01-29T06:52:59.110Z,9.18
2023-01-29T06:55:51.499Z,9.07
2023-01-29T06:58:38.421Z,8.15
2023-01-29T07:01:35.636Z,8.55
2023-01-29T07:04:23.064Z,9.00
2023-01-29T07:07:18.844Z,9.57
2023-01-29T07:10:06.191Z,9.25
2023-01-29T07:12:53.004Z,8.88
2023-01-29T07:15:39.795Z,8.48
2023-01-29T07:18:28.069Z,8.73
2023-01-29T07:21:14.906Z,8.75
2023-01-29T07:24:01.718Z,8.45
2023-01-29T07:26:48.502Z,9.48
2023-01-29T07:29:35.273Z,9.00
2023-01-29T07:32:24.235Z,8.70
2023-01-29T07:35:11.418Z,8.93
2023-01-29T07:37:58.210Z,9.23
2023-01-29T07:40:45.009Z,9.88
2023-01-29T07:43:31.865Z,9.10
2023-01-29T07:46:18.701Z,9.02
2023-01-29T07:49:05.488Z,9.13
2023-01-29T07:51:52.251Z,8.75
2023-01-29T07:54:39.079Z,9.73
2023-01-29T07:57:28.029Z,9.65
2023-01-29T08:00:15.625Z,9.18
2023-01-29T08:03:08.111Z,10.55
2023-01-29T08:05:54.927Z,9.80
2023-01-29T08:08:41.688Z,11.30
2023-01-29T08:11:28.489Z,11.10
2023-01-29T08:14:15.278Z,12.13
2023-01-29T08:17:02.104Z,11.07
2023-01-29T08:19:48.915Z,11.75
2023-01-29T08:22:38.242Z,12.55
2023-01-29T08:28:12.455Z,11.88
2023-01-29T08:30:59.397Z,11.75
2023-01-29T08:33:49.035Z,12.65
2023-01-29T08:36:36.095Z,11.98
2023-01-29T08:39:22.894Z,12.48
2023-01-29T08:42:09.717Z,11.43
2023-01-29T08:44:56.558Z,13.38
2023-01-29T08:47:47.503Z,12.63
2023-01-29T08:50:34.984Z,12.60
2023-01-29T08:53:24.846Z,12.63
2023-01-29T08:56:11.652Z,12.10
2023-01-29T08:58:59.218Z,11.35
2023-01-29T09:01:46.156Z,11.77
2023-01-29T09:04:33.022Z,12.77
2023-01-29T09:07:21.824Z,12.73
2023-01-29T09:10:09.179Z,12.65
2023-01-29T09:12:56.057Z,12.15
2023-01-29T09:15:42.906Z,12.95
2023-01-29T09:18:30.301Z,13.50
2023-01-29T09:21:17.155Z,12.95
2023-01-29T09:24:04.386Z,12.25
2023-01-29T09:26:51.264Z,12.02
2023-01-29T09:29:38.086Z,11.30
2023-01-29T09:32:52.038Z,12.20
2023-01-29T09:35:31.899Z,11.23
2023-01-29T09:38:19.874Z,13.68
2023-01-29T09:41:21.173Z,12.18
2023-01-29T09:44:23.755Z,11.50
2023-01-29T09:47:14.012Z,10.90
2023-01-29T09:50:26.606Z,11.80
2023-01-29T09:53:40.957Z,12.45
2023-01-29T09:56:31.959Z,11.88
2023-01-29T09:59:19.360Z,11.80
2023-01-29T10:02:11.487Z,11.55
2023-01-29T10:05:10.531Z,11.77
2023-01-29T10:08:07.364Z,11.68
2023-01-29T10:11:18.700Z,11.50
2023-01-29T10:14:23.554Z,10.88
2023-01-29T10:17:32.316Z,12.00
2023-01-29T10:20:40.546Z,12.43
2023-01-29T10:23:31.909Z,12.20
2023-01-29T10:26:23.840Z,10.75
2023-01-29T10:29:16.587Z,11.63
2023-01-29T10:32:05.969Z,10.40
2023-01-29T10:34:59.963Z,10.40
2023-01-29T10:37:46.719Z,10.65
2023-01-29T10:40:56.649Z,10.73
2023-01-29T10:44:00.455Z,10.50
2023-01-29T10:47:04.173Z,9.93
2023-01-29T10:50:06.357Z,9.90
2023-01-29T10:53:12.109Z,9.77
2023-01-29T10:56:26.900Z,10.02
2023-01-29T10:59:37.676Z,9.88
2023-01-29T11:02:24.593Z,9.75
2023-01-29T11:05:21.064Z,9.15
2023-01-29T11:08:15.790Z,9.95
2023-01-29T11:11:13.340Z,10.00
2023-01-29T11:14:08.922Z,9.45
2023-01-29T11:16:55.876Z,9.00
2023-01-29T11:19:44.781Z,9.63
2023-01-29T11:22:31.625Z,9.32
2023-01-29T11:25:19.432Z,9.45
2023-01-29T11:28:06.217Z,9.90
2023-01-29T11:30:53.615Z,9.15
2023-01-29T11:33:40.493Z,9.57
2023-01-29T11:36:38.624Z,9.63
2023-01-29T11:39:27.427Z,9.98
2023-01-29T11:42:23.562Z,9.68
2023-01-29T11:45:27.746Z,9.98
2023-01-29T11:48:30.323Z,9.40
2023-01-29T11:51:28.493Z,9.35
2023-01-29T11:54:17.258Z,9.07
2023-01-29T11:57:04.291Z,9.43
2023-01-29T11:59:52.007Z,10.98
2023-01-29T12:02:42.676Z,9.77
2023-01-29T12:05:29.576Z,8.98
2023-01-29T12:08:18.041Z,9.27
2023-01-29T12:11:26.020Z,9.37
2023-01-29T12:14:33.373Z,9.32
2023-01-29T12:17:26.262Z,10.10
2023-01-29T12:20:16.732Z,9.57
2023-01-29T12:23:17.827Z,9.20
2023-01-29T12:26:09.182Z,9.60
2023-01-29T12:29:33.852Z,9.88
2023-01-29T12:32:32.784Z,10.68
2023-01-29T12:35:30.467Z,9.82
2023-01-29T12:38:24.097Z,9.85
2023-01-29T12:41:22.928Z,9.05
2023-01-29T12:44:19.889Z,9.57
2023-01-29T12:47:07.425Z,8.95
2023-01-29T12:49:57.275Z,8.48
2023-01-29T12:52:48.602Z,9.02
2023-01-29T12:55:55.220Z,10.18
2023-01-29T12:58:45.368Z,10.50
2023-01-29T13:01:44.709Z,9.18
2023-01-29T13:04:47.968Z,9.83
2023-01-29T13:07:41.910Z,9.80
2023-01-29T13:10:34.159Z,10.30
2023-01-29T13:13:37.871Z,9.55
2023-01-29T13:16:36.299Z,9.10
2023-01-29T13:19:37.091Z,8.35
2023-01-29T13:22:29.196Z,9.23
2023-01-29T13:25:17.510Z,9.30
2023-01-29T13:28:04.388Z,9.68
2023-01-29T13:31:19.118Z,8.70
2023-01-29T13:34:25.588Z,9.90
2023-01-29T13:37:33.464Z,9.43
2023-01-29T13:40:30.640Z,9.40
2023-01-29T13:43:22.427Z,9.70
2023-01-29T13:46:18.351Z,9.07
2023-01-29T13:49:05.629Z,9.27
2023-01-29T13:51:52.504Z,10.43
2023-01-29T13:54:39.548Z,10.02
2023-01-29T13:57:48.623Z,8.85
2023-01-29T14:00:35.525Z,9.55
2023-01-29T14:03:24.989Z,9.75
2023-01-29T14:06:11.851Z,8.93
2023-01-29T14:09:00.587Z,9.57
2023-01-29T14:11:50.484Z,8.98
2023-01-29T14:14:50.184Z,10.18
2023-01-29T14:17:38.177Z,9.18
2023-01-29T14:20:38.865Z,10.27
2023-01-29T14:23:41.971Z,9.30
2023-01-29T14:26:32.712Z,9.13
2023-01-29T14:29:35.474Z,9.88
2023-01-29T14:32:25.049Z,8.55
2023-01-29T14:35:24.079Z,9.68
2023-01-29T14:38:14.176Z,9.48
2023-01-29T14:41:29.790Z,10.30
2023-01-29T14:44:44.879Z,9.30
2023-01-29T14:47:34.621Z,9.05
2023-01-29T14:50:33.528Z,9.27
2023-01-29T14:53:57.739Z,10.32
2023-01-29T14:56:53.663Z,10.85
2023-01-29T14:59:59.101Z,9.35
2023-01-29T15:02:46.220Z,10.13
2023-01-29T15:05:36.511Z,9.32
2023-01-29T15:08:30.090Z,9.20
2023-01-29T15:11:35.965Z,9.55
2023-01-29T15:14:29.275Z,10.32
2023-01-29T15:17:21.811Z,10.40
2023-01-29T15:20:28.809Z,10.82
2023-01-29T15:23:29.919Z,10.27
2023-01-29T15:26:22.101Z,9.38
2023-01-29T15:29:22.518Z,10.32
2023-01-29T15:32:15.837Z,11.88
2023-01-29T15:35:08.112Z,10.68
2023-01-29T15:38:05.948Z,9.80
2023-01-29T15:40:58.112Z,9.73
2023-01-29T15:43:48.129Z,9.75
2023-01-29T15:46:36.930Z,9.77
2023-01-29T15:49:32.766Z,9.43
2023-01-29T15:52:32.932Z,9.70
2023-01-29T15:55:21.882Z,11.60
2023-01-29T15:58:15.243Z,10.07
2023-01-29T16:01:02.140Z,12.25
2023-01-29T16:03:50.014Z,10.60
2023-01-29T16:06:39.258Z,10.90
2023-01-29T16:09:27.248Z,9.02
2023-01-29T16:12:14.166Z,11.43
2023-01-29T16:15:03.010Z,10.73
2023-01-29T16:17:50.597Z,11.05
2023-01-29T16:20:43.947Z,11.23
2023-01-29T16:23:35.040Z,10.63
2023-01-29T16:26:25.144Z,10.63
2023-01-29T16:29:14.200Z,9.32
2023-01-29T16:32:02.464Z,9.48
2023-01-29T16:34:49.675Z,10.47
2023-01-29T16:37:36.729Z,9.55
2023-01-29T16:40:37.864Z,10.00
2023-01-29T16:43:28.372Z,9.82
2023-01-29T16:46:25.117Z,8.65
2023-01-29T16:49:30.365Z,10.50
2023-01-29T16:52:33.976Z,10.82
2023-01-29T16:55:22.962Z,9.80
2023-01-29T16:58:25.398Z,10.55
2023-01-29T17:01:12.221Z,9.57
2023-01-29T17:04:02.101Z,9.60
2023-01-29T17:06:53.316Z,9.25
2023-01-29T17:09:41.032Z,10.85
2023-01-29T17:12:29.398Z,9.85
2023-01-29T17:15:38.079Z,10.67
2023-01-29T17:18:25.185Z,10.02
2023-01-29T17:21:11.951Z,9.07
2023-01-29T17:23:58.766Z,9.48
2023-01-29T17:26:45.645Z,9.93
2023-01-29T17:29:32.543Z,9.80
2023-01-29T17:32:19.288Z,9.63
2023-01-29T17:35:06.596Z,10.18
2023-01-29T17:37:53.370Z,9.95
2023-01-29T17:40:46.108Z,9.38
2023-01-29T17:43:32.905Z,10.55
2023-01-29T17:46:20.133Z,8.85
2023-01-29T17:49:20.290Z,9.18
2023-01-29T17:52:07.614Z,10.32
2023-01-29T17:54:54.385Z,9.73
2023-01-29T17:57:41.287Z,9.60
2023-01-29T18:00:29.605Z,9.70
2023-01-29T18:03:16.415Z,9.80
2023-01-29T18:06:03.276Z,9.57
2023-01-29T18:08:50.051Z,9.98
2023-01-29T18:11:37.277Z,10.18
2023-01-29T18:14:24.096Z,10.43
2023-01-29T18:17:14.262Z,10.40
2023-01-29T18:20:01.165Z,10.00
2023-01-29T18:22:48.015Z,9.52
2023-01-29T18:25:35.138Z,10.75
2023-01-29T18:28:21.961Z,10.05
2023-01-29T18:31:10.080Z,10.63
2023-01-29T18:33:57.024Z,10.82
2023-01-29T18:36:46.940Z,9.85
2023-01-29T18:39:33.772Z,10.55
2023-01-29T18:42:20.613Z,10.05
2023-01-29T18:45:08.142Z,11.25
2023-01-29T18:47:55.144Z,10.40
2023-01-29T18:50:41.921Z,9.70
2023-01-29T18:53:28.860Z,11.07
2023-01-29T18:56:18.339Z,11.43
2023-01-29T18:59:06.722Z,12.52
2023-01-29T19:01:53.847Z,11.02
2023-01-29T19:04:40.866Z,10.90
2023-01-29T19:07:27.626Z,10.80
2023-01-29T19:10:16.841Z,13.73
2023-01-29T19:13:05.789Z,12.85
2023-01-29T19:15:53.461Z,12.30
2023-01-29T19:18:40.267Z,12.73
2023-01-29T19:21:27.159Z,13.20
2023-01-29T19:24:14.723Z,13.60
2023-01-29T19:27:01.973Z,12.95
2023-01-29T19:29:48.821Z,14.82
2023-01-29T19:32:35.716Z,13.82
2023-01-29T19:35:22.567Z,14.20
2023-01-29T19:38:09.438Z,13.57
2023-01-29T19:40:56.279Z,14.82
2023-01-29T19:43:46.323Z,13.10
2023-01-29T19:46:33.529Z,13.27
2023-01-29T19:49:20.349Z,13.65
2023-01-29T19:52:14.933Z,14.20
2023-01-29T19:55:08.618Z,13.45
2023-01-29T19:57:57.025Z,14.63
2023-01-29T20:00:46.243Z,14.83
2023-01-29T20:03:33.271Z,14.20
2023-01-29T20:06:23.621Z,14.02
2023-01-29T20:09:10.469Z,14.95
2023-01-29T20:11:57.259Z,15.90
2023-01-29T20:14:51.957Z,14.68
2023-01-29T20:17:38.787Z,16.38
2023-01-29T20:20:30.990Z,15.38
2023-01-29T20:23:31.691Z,15.05
2023-01-29T20:26:23.815Z,13.75
2023-01-29T20:29:11.514Z,13.75
2023-01-29T20:32:00.195Z,14.02
2023-01-29T20:34:51.792Z,15.90
2023-01-29T20:37:38.645Z,13.90
2023-01-29T20:40:25.859Z,14.93
2023-01-29T20:43:12.883Z,14.93
2023-01-29T20:46:00.469Z,14.30
2023-01-29T20:48:49.025Z,14.50
2023-01-29T20:51:35.808Z,13.75
2023-01-29T20:54:22.566Z,15.43
2023-01-29T20:57:09.684Z,14.73
2023-01-29T20:59:56.494Z,15.70
2023-01-29T21:02:45.725Z,14.63
2023-01-29T21:05:32.497Z,15.25
2023-01-29T21:08:19.305Z,16.48
2023-01-29T21:11:07.583Z,14.80
2023-01-29T21:13:57.548Z,15.35
2023-01-29T21:16:44.434Z,15.10
2023-01-29T21:19:31.242Z,16.02
2023-01-29T21:22:18.015Z,15.68
2023-01-29T21:25:05.095Z,14.88
2023-01-29T21:27:51.876Z,15.05
2023-01-29T21:30:38.822Z,16.95
2023-01-29T21:33:25.583Z,14.25
2023-01-29T21:36:12.476Z,15.50
2023-01-29T21:38:59.394Z,16.35
2023-01-29T21:42:13.906Z,16.05
2023-01-29T21:45:00.728Z,16.98
2023-01-29T21:47:47.595Z,17.33
2023-01-29T21:50:34.627Z,16.17
2023-01-29T21:53:21.479Z,15.85
2023-01-29T21:56:08.295Z,15.38
2023-01-29T21:58:55.189Z,15.63
2023-01-29T22:01:42.012Z,15.45
2023-01-29T22:04:28.952Z,16.23
2023-01-29T22:07:15.780Z,15.55
2023-01-29T22:10:02.929Z,15.45
2023-01-29T22:12:49.841Z,16.23
2023-01-29T22:15:36.601Z,15.52
2023-01-29T22:18:23.463Z,16.55
2023-01-29T22:21:10.272Z,16.00
2023-01-29T22:23:57.164Z,16.52
2023-01-29T22:26:44.028Z,17.17
2023-01-29T22:29:30.780Z,17.33
2023-01-29T22:32:17.643Z,18.27
2023-01-29T22:35:04.749Z,17.52
2023-01-29T22:37:51.516Z,18.25
2023-01-29T22:40:38.301Z,18.38
2023-01-29T22:43:29.087Z,16.92
2023-01-29T22:46:15.935Z,16.70
2023-01-29T22:49:02.713Z,17.80
2023-01-29T22:52:09.461Z,17.13
2023-01-29T22:54:56.867Z,16.08
2023-01-29T22:57:43.682Z,19.67
2023-01-29T23:00:30.469Z,18.33
2023-01-29T23:03:17.351Z,15.98
2023-01-29T23:06:04.261Z,19.27
2023-01-29T23:08:51.293Z,17.75
2023-01-29T23:11:38.049Z,17.58
2023-01-29T23:14:24.797Z,17.38
2023-01-29T23:17:11.624Z,18.13
2023-01-29T23:19:58.538Z,19.33
2023-01-29T23:22:48.146Z,17.88
2023-01-29T23:25:53.609Z,19.80
2023-01-29T23:28:40.449Z,17.40
2023-01-29T23:31:27.297Z,17.90
2023-01-29T23:34:14.296Z,19.73
2023-01-29T23:37:01.119Z,19.05
2023-01-29T23:39:48.461Z,20.63
2023-01-29T23:42:35.247Z,21.30
2023-01-29T23:45:22.065Z,19.13
2023-01-29T23:48:09.033Z,20.08
2023-01-29T23:50:56.053Z,19.58
2023-01-29T23:53:42.999Z,21.42
2023-01-29T23:56:30.053Z,19.50
2023-01-29T23:59:17.236Z,19.67
